• Join FlightAware (Why Join?)
  • Login
  • US Flag 
07:19AM EDT


 

Airport Tracker/Info


-or-


 

Live Flight TrackerFlight Track Log ✈ FLG4262 ✈ 18-Nov-2013 ✈ KBGM - KDTW

Flight Track Log - Related Links

Times and Time Zones

All times are in EST time to prevent confusion due to time zone crossing. See the FLG4262 flight status page for this flight to view local times or setup timezone preferences in your user account.

Time Position Orientation Groundspeed Altitude Reporting Facility
EST Latitude Longitude Course Direction KTS MPH feet Rate Location/Type
05:28PM 42.2481 -76.0819 287° West 165 190 5,800  Level New York Center
05:29PM 42.2714 -76.1625 291° West 202 232 8,200 2,460 Climbing New York Center
05:30PM 42.2986 -76.2544 292° West 241 277 10,800 2,520 Climbing New York Center
05:31PM 42.3292 -76.3578 292° West 273 314 13,300 2,400 Climbing New York Center
05:32PM 42.3672 -76.5006 290° West 292 336 16,700 2,100 Climbing Cleveland Center
05:33PM 42.3961 -76.6042 291° West 296 341 18,500 1,560 Climbing Cleveland Center
05:34PM 42.4256 -76.7139 290° West 310 357 20,000 1,440 Climbing Cleveland Center
05:35PM 42.4622 -76.8481 290° West 315 362 21,500 1,320 Climbing Cleveland Center
05:36PM 42.4914 -76.9592 290° West 315 362 22,800 1,260 Climbing Cleveland Center
05:37PM 42.5214 -77.0722 290° West 318 366 24,200 1,260 Climbing Cleveland Center
05:38PM 42.5517 -77.1844 290° West 316 364 25,500 1,200 Climbing Cleveland Center
05:39PM 42.5811 -77.2947 290° West 314 361 26,700 1,020 Climbing Cleveland Center
05:40PM 42.6167 -77.4303 290° West 319 367 27,700 600 Climbing Cleveland Center
05:41PM 42.6447 -77.5356 290° West 322 371 28,000 120 Climbing Cleveland Center
05:43PM 42.6572 -77.6589 278° West 328 377 28,000  Level Cleveland Center
05:44PM 42.6625 -77.8142 273° West 362 417 28,000  Level Cleveland Center
05:45PM 42.6664 -77.9450 272° West 350 403 28,000  Level Cleveland Center
05:46PM 42.6697 -78.0794 272° West 354 407 28,000  Level Cleveland Center
05:47PM 42.6733 -78.2144 272° West 359 413 28,000  Level Cleveland Center
05:48PM 42.6778 -78.3508 273° West 361 415 28,000  Level Cleveland Center
05:49PM 42.6800 -78.4867 271° West 362 417 28,000  Level Cleveland Center
05:50PM 42.6833 -78.6511 272° West 364 419 28,000  Level Cleveland Center
05:51PM 42.6858 -78.7881 271° West 364 419 28,000  Level Cleveland Center
05:52PM 42.6878 -78.9242 271° West 362 417 28,000  Level Cleveland Center
05:53PM 42.6903 -79.0619 271° West 364 419 28,000  Level Cleveland Center
05:54PM 42.6931 -79.1983 272° West 364 419 28,000  Level Cleveland Center
05:55PM 42.6950 -79.3342 271° West 363 418 28,000  Level Cleveland Center
05:56PM 42.6972 -79.4986 271° West 365 420 28,000  Level Cleveland Center
05:57PM 42.6989 -79.6364 271° West 364 419 28,000  Level Cleveland Center
05:58PM 42.6997 -79.7742 271° West 365 420 28,000  Level Cleveland Center
05:59PM 42.7011 -79.9122 271° West 366 421 28,000  Level Cleveland Center
06:00PM 42.7014 -80.0728 270° West 371 427 28,000  Level Cleveland Center
06:01PM 42.7031 -80.2122 271° West 367 422 28,000  Level Cleveland Center
06:02PM 42.7028 -80.3514 270° West 366 421 28,000  Level Cleveland Center
06:03PM 42.7053 -80.4925 271° West 371 427 28,000  Level Cleveland Center
06:04PM 42.7044 -80.6314 270° West 367 422 28,000 -180 Level Cleveland Center
06:05PM 42.7061 -80.7750 271° West 376 433 27,700 -600 Descending Cleveland Center
06:06PM 42.7039 -80.9172 269° West 376 433 26,800 -960 Descending Cleveland Center
06:07PM 42.6833 -81.0803 260° West 374 430 25,800 -1,020 Descending Cleveland Center
06:08PM 42.6683 -81.2211 262° West 374 430 24,800 -900 Descending Cleveland Center
06:09PM 42.6525 -81.3589 261° West 369 425 24,000 -540 Descending Cleveland Center
06:10PM 42.6369 -81.4944 261° West 364 419 23,800 -900 Descending Cleveland Center
06:11PM 42.6211 -81.6292 261° West 361 415 22,200 -1,500 Descending Cleveland Center
06:13PM 42.6036 -81.7664 260° West 366 421 20,700 -1,500 Descending Cleveland Center
06:14PM 42.5886 -81.9042 262° West 358 412 19,100 -1,560 Descending Cleveland Center
06:15PM 42.5719 -82.0353 260° West 353 406 17,500 -1,440 Descending Cleveland Center
06:16PM 42.5558 -82.1728 261° West 366 421 16,200 -1,620 Descending Cleveland Center
06:17PM 42.5353 -82.3344 260° West 366 421 14,200 -2,040 Descending Cleveland Center
06:17PM 42.5350 -82.3378 264° West 365 420 14,100 -1,680 Descending Cleveland Center
06:17PM 42.5228 -82.4239 259° West 338 389 13,000 -1,620 Descending Cleveland Center
06:18PM 42.5203 -82.4594 265° West 345 397 12,500 -1,020 Descending Cleveland Center
06:18PM 42.5078 -82.5467 259° West 328 377 12,000 -540 Descending Cleveland Center
06:19PM 42.4972 -82.5789 246° West 336 387 12,000 -420 Level Cleveland Center
06:19PM 42.4664 -82.6600 243° Southwest 299 344 11,600 -720 Descending Cleveland Center
06:20PM 42.4597 -82.6814 247° West 308 354 11,300 -1,500 Descending Cleveland Center
06:20PM 42.4367 -82.7522 246° West 254 292 10,100 -1,500 Descending Cleveland Center
06:21PM 42.4297 -82.7669 237° Southwest 267 307 9,800 -1,500 Descending Cleveland Center
06:21PM 42.4283 -82.8358 268° West 226 260 8,600 -1,740 Descending Cleveland Center
06:22PM 42.4361 -82.8658 289° West 231 266 8,000 -1,560 Descending Cleveland Center
06:22PM 42.4464 -82.9061 289° West 214 246 7,200 -1,020 Descending Cleveland Center
06:23PM 42.4547 -82.9400 288° West 212 244 7,000 -240 Descending Cleveland Center
06:23PM 42.4661 -82.9794 291° West 205 236 7,000  Level Cleveland Center
06:24PM 42.4742 -83.0125 288° West 208 239 7,000  Level Cleveland Center
06:24PM 42.4853 -83.0586 288° West 218 251 7,000  Level Cleveland Center
06:25PM 42.4925 -83.0903 287° West 214 246 7,000 -840 Level Cleveland Center
06:25PM 42.4731 -83.1389 242° Southwest 229 264 6,200 -1,020 Descending Cleveland Center
06:26PM 42.4569 -83.1581 221° Southwest 232 267 6,000 -600 Descending Cleveland Center
06:26PM 42.4236 -83.1831 209° Southwest 210 242 5,600 -780 Descending Cleveland Center
06:27PM 42.4053 -83.1972 210° Southwest 218 251 5,200 -1,200 Descending Cleveland Center
06:28PM 42.3700 -83.2236 209° Southwest 186 214 4,300 -1,380 Descending Cleveland Center
06:28PM 42.3492 -83.2392 209° Southwest 197 227 3,800 -1,140 Descending Cleveland Center
06:29PM 42.3233 -83.2594 210° Southwest 196 226 3,200 -1,200 Descending Cleveland Center
06:29PM 42.3019 -83.2731 205° Southwest 193 222 2,600 -1,140 Descending Cleveland Center
06:30PM 42.2769 -83.2925 210° Southwest 170 196 2,100 -900 Descending Cleveland Center
06:30PM 42.2611 -83.3044 209° Southwest 177 204 1,700 -900 Descending Cleveland Center
06:31PM 42.2414 -83.3186 208° Southwest 146 168 1,200 -540 Descending Cleveland Center
06:31PM 42.2297 -83.3264 206° Southwest 160 184 1,200  Level Cleveland Center
06:33PM 42.2124 -83.3534 236° Southwest  Level Estimated
06:40PM 42.2124 -83.3534 236° Southwest  Level Estimated